sensor_id;sensor_type;location;lat;lon;timestamp;pressure;altitude;pressure_sealevel;temperature;humidity
65758;BME280;52495;52.208;5.158;2023-04-06T00:01:00;101766.59;;;6.10;56.64
65758;BME280;52495;52.208;5.158;2023-04-06T00:03:27;101758.16;;;6.19;55.99
65758;BME280;52495;52.208;5.158;2023-04-06T00:05:53;101755.50;;;6.13;56.02
65758;BME280;52495;52.208;5.158;2023-04-06T00:08:21;101756.38;;;6.13;55.43
65758;BME280;52495;52.208;5.158;2023-04-06T00:10:50;101752.09;;;6.14;55.18
65758;BME280;52495;52.208;5.158;2023-04-06T00:13:17;101748.81;;;6.21;55.48
65758;BME280;52495;52.208;5.158;2023-04-06T00:15:44;101746.97;;;6.15;54.31
65758;BME280;52495;52.208;5.158;2023-04-06T00:18:10;101747.94;;;6.20;55.48
65758;BME280;52495;52.208;5.158;2023-04-06T00:20:37;101751.31;;;6.18;55.32
65758;BME280;52495;52.208;5.158;2023-04-06T00:23:05;101750.44;;;6.17;55.08
65758;BME280;52495;52.208;5.158;2023-04-06T00:25:32;101747.84;;;6.14;54.74
65758;BME280;52495;52.208;5.158;2023-04-06T00:28:00;101744.41;;;6.15;55.03
65758;BME280;52495;52.208;5.158;2023-04-06T00:30:28;101742.75;;;6.17;54.49
65758;BME280;52495;52.208;5.158;2023-04-06T00:32:55;101738.50;;;6.18;54.83
65758;BME280;52495;52.208;5.158;2023-04-06T00:35:23;101741.13;;;6.24;54.14
65758;BME280;52495;52.208;5.158;2023-04-06T00:37:50;101734.03;;;6.06;54.35
65758;BME280;52495;52.208;5.158;2023-04-06T00:40:17;101729.69;;;6.02;54.95
65758;BME280;52495;52.208;5.158;2023-04-06T00:42:44;101729.69;;;6.02;55.19
65758;BME280;52495;52.208;5.158;2023-04-06T00:45:12;101729.59;;;5.97;54.70
65758;BME280;52495;52.208;5.158;2023-04-06T00:47:39;101723.72;;;6.03;54.53
65758;BME280;52495;52.208;5.158;2023-04-06T00:50:07;101717.69;;;6.01;54.11
65758;BME280;52495;52.208;5.158;2023-04-06T00:52:35;101719.47;;;6.03;54.47
65758;BME280;52495;52.208;5.158;2023-04-06T00:55:03;101716.03;;;6.01;53.94
65758;BME280;52495;52.208;5.158;2023-04-06T00:57:31;101713.41;;;6.00;54.55
65758;BME280;52495;52.208;5.158;2023-04-06T00:59:58;101708.25;;;5.98;54.41
65758;BME280;52495;52.208;5.158;2023-04-06T01:02:27;101702.28;;;5.99;54.23
65758;BME280;52495;52.208;5.158;2023-04-06T01:04:54;101700.53;;;5.97;54.63
65758;BME280;52495;52.208;5.158;2023-04-06T01:07:29;101698.03;;;6.00;54.60
65758;BME280;52495;52.208;5.158;2023-04-06T01:10:05;101699.72;;;5.98;54.49
65758;BME280;52495;52.208;5.158;2023-04-06T01:12:34;101691.13;;;5.97;54.59
65758;BME280;52495;52.208;5.158;2023-04-06T01:15:07;101685.16;;;5.98;54.45
65758;BME280;52495;52.208;5.158;2023-04-06T01:17:40;101685.25;;;6.01;53.75
65758;BME280;52495;52.208;5.158;2023-04-06T01:20:12;101680.97;;;6.02;54.31
65758;BME280;52495;52.208;5.158;2023-04-06T01:22:40;101678.41;;;6.02;54.27
65758;BME280;52495;52.208;5.158;2023-04-06T01:25:10;101686.16;;;6.06;54.16
65758;BME280;52495;52.208;5.158;2023-04-06T01:27:47;101680.22;;;6.07;53.94
65758;BME280;52495;52.208;5.158;2023-04-06T01:30:23;101679.41;;;6.10;53.83
65758;BME280;52495;52.208;5.158;2023-04-06T01:32:58;101681.09;;;6.10;54.17
65758;BME280;52495;52.208;5.158;2023-04-06T01:35:37;101673.41;;;6.10;54.64
65758;BME280;52495;52.208;5.158;2023-04-06T01:38:23;101670.81;;;6.08;54.48
65758;BME280;52495;52.208;5.158;2023-04-06T01:40:51;101662.25;;;6.06;54.27
65758;BME280;52495;52.208;5.158;2023-04-06T01:43:21;101658.84;;;6.05;53.42
65758;BME280;52495;52.208;5.158;2023-04-06T01:46:14;101659.69;;;6.06;54.41
65758;BME280;52495;52.208;5.158;2023-04-06T01:48:43;101657.13;;;6.07;53.66
65758;BME280;52495;52.208;5.158;2023-04-06T01:51:17;101656.22;;;6.04;54.37
65758;BME280;52495;52.208;5.158;2023-04-06T01:53:53;101650.25;;;6.03;53.98
65758;BME280;52495;52.208;5.158;2023-04-06T01:56:24;101652.00;;;6.07;54.13
65758;BME280;52495;52.208;5.158;2023-04-06T01:59:01;101651.97;;;6.04;53.36
65758;BME280;52495;52.208;5.158;2023-04-06T02:01:35;101645.97;;;6.04;53.65
65758;BME280;52495;52.208;5.158;2023-04-06T02:04:02;101648.59;;;6.07;53.46
65758;BME280;52495;52.208;5.158;2023-04-06T02:06:29;101634.09;;;6.11;53.87
65758;BME280;52495;52.208;5.158;2023-04-06T02:08:58;101631.59;;;6.12;54.20
65758;BME280;52495;52.208;5.158;2023-04-06T02:11:25;101624.78;;;6.14;53.84
65758;BME280;52495;52.208;5.158;2023-04-06T02:13:55;101638.47;;;6.16;53.66
65758;BME280;52495;52.208;5.158;2023-04-06T02:16:25;101623.94;;;6.17;53.58
65758;BME280;52495;52.208;5.158;2023-04-06T02:18:52;101623.06;;;6.16;53.71
65758;BME280;52495;52.208;5.158;2023-04-06T02:21:19;101616.16;;;6.11;54.07
65758;BME280;52495;52.208;5.158;2023-04-06T02:23:46;101615.31;;;6.10;54.16
65758;BME280;52495;52.208;5.158;2023-04-06T02:26:16;101611.91;;;6.11;53.64
65758;BME280;52495;52.208;5.158;2023-04-06T02:28:43;101611.13;;;6.17;54.35
65758;BME280;52495;52.208;5.158;2023-04-06T02:31:10;101611.97;;;6.17;53.64
65758;BME280;52495;52.208;5.158;2023-04-06T02:33:37;101609.44;;;6.19;53.29
65758;BME280;52495;52.208;5.158;2023-04-06T02:36:06;101608.56;;;6.18;53.70
65758;BME280;52495;52.208;5.158;2023-04-06T02:38:34;101604.38;;;6.22;53.64
65758;BME280;52495;52.208;5.158;2023-04-06T02:41:02;101600.97;;;6.25;54.24
65758;BME280;52495;52.208;5.158;2023-04-06T02:43:30;101598.41;;;6.26;53.53
65758;BME280;52495;52.208;5.158;2023-04-06T02:46:04;101591.56;;;6.25;53.06
65758;BME280;52495;52.208;5.158;2023-04-06T02:48:35;101593.31;;;6.28;53.25
65758;BME280;52495;52.208;5.158;2023-04-06T02:51:03;101594.22;;;6.31;54.01
65758;BME280;52495;52.208;5.158;2023-04-06T02:53:30;101589.09;;;6.33;53.06
65758;BME280;52495;52.208;5.158;2023-04-06T02:55:58;101578.91;;;6.37;53.56
65758;BME280;52495;52.208;5.158;2023-04-06T02:58:33;101573.75;;;6.34;52.91
65758;BME280;52495;52.208;5.158;2023-04-06T03:01:00;101576.34;;;6.39;53.40
65758;BME280;52495;52.208;5.158;2023-04-06T03:03:27;101576.34;;;6.39;53.07
65758;BME280;52495;52.208;5.158;2023-04-06T03:05:56;101571.22;;;6.39;53.17
65758;BME280;52495;52.208;5.158;2023-04-06T03:08:27;101572.03;;;6.33;53.63
65758;BME280;52495;52.208;5.158;2023-04-06T03:10:54;101572.91;;;6.37;54.12
65758;BME280;52495;52.208;5.158;2023-04-06T03:13:29;101563.50;;;6.36;53.57
65758;BME280;52495;52.208;5.158;2023-04-06T03:15:58;101568.66;;;6.41;53.04
65758;BME280;52495;52.208;5.158;2023-04-06T03:18:26;101565.22;;;6.37;53.27
65758;BME280;52495;52.208;5.158;2023-04-06T03:20:55;101571.22;;;6.37;53.48
65758;BME280;52495;52.208;5.158;2023-04-06T03:23:31;101570.38;;;6.40;53.94
65758;BME280;52495;52.208;5.158;2023-04-06T03:26:01;101565.31;;;6.45;53.65
65758;BME280;52495;52.208;5.158;2023-04-06T03:28:29;101570.38;;;6.40;53.52
65758;BME280;52495;52.208;5.158;2023-04-06T03:31:00;101559.28;;;6.40;54.21
65758;BME280;52495;52.208;5.158;2023-04-06T03:33:50;101559.28;;;6.40;53.50
65758;BME280;52495;52.208;5.158;2023-04-06T03:36:24;101554.09;;;6.36;53.92
65758;BME280;52495;52.208;5.158;2023-04-06T03:38:53;101554.94;;;6.35;54.00
65758;BME280;52495;52.208;5.158;2023-04-06T03:41:20;101548.94;;;6.35;53.81
65758;BME280;52495;52.208;5.158;2023-04-06T03:44:09;101542.94;;;6.31;54.51
65758;BME280;52495;52.208;5.158;2023-04-06T03:46:38;101535.19;;;6.27;54.30
65758;BME280;52495;52.208;5.158;2023-04-06T03:49:05;101543.81;;;6.32;54.03
65758;BME280;52495;52.208;5.158;2023-04-06T03:51:32;101541.19;;;6.30;55.07
65758;BME280;52495;52.208;5.158;2023-04-06T03:53:59;101536.03;;;6.26;54.75
65758;BME280;52495;52.208;5.158;2023-04-06T03:56:26;101538.59;;;6.27;55.38
65758;BME280;52495;52.208;5.158;2023-04-06T03:58:53;101543.75;;;6.29;54.53
65758;BME280;52495;52.208;5.158;2023-04-06T04:01:20;101542.03;;;6.29;54.92
65758;BME280;52495;52.208;5.158;2023-04-06T04:03:49;101542.03;;;6.29;54.56
65758;BME280;52495;52.208;5.158;2023-04-06T04:06:15;101535.22;;;6.30;55.49
65758;BME280;52495;52.208;5.158;2023-04-06T04:08:42;101537.75;;;6.28;55.13
65758;BME280;52495;52.208;5.158;2023-04-06T04:11:09;101540.31;;;6.27;55.12
65758;BME280;52495;52.208;5.158;2023-04-06T04:13:37;101536.88;;;6.26;55.01
65758;BME280;52495;52.208;5.158;2023-04-06T04:16:05;101540.28;;;6.23;54.95
65758;BME280;52495;52.208;5.158;2023-04-06T04:18:32;101541.13;;;6.24;55.31
65758;BME280;52495;52.208;5.158;2023-04-06T04:21:00;101537.66;;;6.20;55.16
65758;BME280;52495;52.208;5.158;2023-04-06T04:23:27;101535.88;;;6.15;55.90
65758;BME280;52495;52.208;5.158;2023-04-06T04:25:54;101533.34;;;6.16;55.71
65758;BME280;52495;52.208;5.158;2023-04-06T04:28:21;101543.59;;;6.16;56.00
65758;BME280;52495;52.208;5.158;2023-04-06T04:30:48;101531.66;;;6.18;56.14
65758;BME280;52495;52.208;5.158;2023-04-06T04:33:15;101530.81;;;6.19;56.56
65758;BME280;52495;52.208;5.158;2023-04-06T04:35:43;101531.69;;;6.21;56.67
65758;BME280;52495;52.208;5.158;2023-04-06T04:38:15;101535.97;;;6.22;55.61
65758;BME280;52495;52.208;5.158;2023-04-06T04:40:45;101531.72;;;6.23;55.47
65758;BME280;52495;52.208;5.158;2023-04-06T04:43:12;101531.69;;;6.21;56.49
65758;BME280;52495;52.208;5.158;2023-04-06T04:45:39;101531.66;;;6.18;56.50
65758;BME280;52495;52.208;5.158;2023-04-06T04:48:15;101529.13;;;6.21;56.48
65758;BME280;52495;52.208;5.158;2023-04-06T04:50:51;101518.00;;;6.19;56.63
65758;BME280;52495;52.208;5.158;2023-04-06T04:53:24;101529.97;;;6.20;56.67
65758;BME280;52495;52.208;5.158;2023-04-06T04:55:55;101525.72;;;6.21;56.70
65758;BME280;52495;52.208;5.158;2023-04-06T04:58:22;101517.19;;;6.23;56.58
65758;BME280;52495;52.208;5.158;2023-04-06T05:00:54;101522.28;;;6.20;57.04
65758;BME280;52495;52.208;5.158;2023-04-06T05:03:23;101522.28;;;6.20;56.40
65758;BME280;52495;52.208;5.158;2023-04-06T05:06:01;101515.38;;;6.16;56.58
65758;BME280;52495;52.208;5.158;2023-04-06T05:08:33;101513.69;;;6.17;57.25
65758;BME280;52495;52.208;5.158;2023-04-06T05:11:01;101526.56;;;6.20;56.90
65758;BME280;52495;52.208;5.158;2023-04-06T05:13:32;101505.91;;;6.09;56.86
65758;BME280;52495;52.208;5.158;2023-04-06T05:16:05;101522.28;;;6.20;56.77
65758;BME280;52495;52.208;5.158;2023-04-06T05:18:33;101521.47;;;6.23;56.35
65758;BME280;52495;52.208;5.158;2023-04-06T05:21:02;101520.59;;;6.22;56.75
65758;BME280;52495;52.208;5.158;2023-04-06T05:23:51;101510.34;;;6.24;57.14
65758;BME280;52495;52.208;5.158;2023-04-06T05:26:20;101513.84;;;6.28;57.04
65758;BME280;52495;52.208;5.158;2023-04-06T05:28:49;101514.72;;;6.33;57.00
65758;BME280;52495;52.208;5.158;2023-04-06T05:31:17;101513.00;;;6.30;57.57
65758;BME280;52495;52.208;5.158;2023-04-06T05:33:47;101512.22;;;6.37;56.16
65758;BME280;52495;52.208;5.158;2023-04-06T05:36:17;101509.66;;;6.37;56.69
65758;BME280;52495;52.208;5.158;2023-04-06T05:38:47;101511.31;;;6.34;56.97
65758;BME280;52495;52.208;5.158;2023-04-06T05:41:32;101507.97;;;6.40;56.53
65758;BME280;52495;52.208;5.158;2023-04-06T05:44:03;101509.69;;;6.41;57.39
65758;BME280;52495;52.208;5.158;2023-04-06T05:47:05;101517.44;;;6.45;56.72
65758;BME280;52495;52.208;5.158;2023-04-06T05:49:35;101514.00;;;6.43;57.03
65758;BME280;52495;52.208;5.158;2023-04-06T05:52:04;101514.03;;;6.48;57.28
65758;BME280;52495;52.208;5.158;2023-04-06T05:54:32;101520.06;;;6.51;57.08
65758;BME280;52495;52.208;5.158;2023-04-06T05:57:03;101510.66;;;6.53;57.13
65758;BME280;52495;52.208;5.158;2023-04-06T05:59:30;101506.41;;;6.56;56.69
65758;BME280;52495;52.208;5.158;2023-04-06T06:01:58;101507.31;;;6.58;56.32
65758;BME280;52495;52.208;5.158;2023-04-06T06:04:28;101509.03;;;6.60;56.62
65758;BME280;52495;52.208;5.158;2023-04-06T06:06:56;101507.34;;;6.62;56.35
65758;BME280;52495;52.208;5.158;2023-04-06T06:09:28;101509.09;;;6.65;56.47
65758;BME280;52495;52.208;5.158;2023-04-06T06:12:16;101513.41;;;6.71;56.44
65758;BME280;52495;52.208;5.158;2023-04-06T06:14:44;101510.84;;;6.72;57.16
65758;BME280;52495;52.208;5.158;2023-04-06T06:17:11;101507.47;;;6.78;57.02
65758;BME280;52495;52.208;5.158;2023-04-06T06:19:38;101510.13;;;6.84;56.65
65758;BME280;52495;52.208;5.158;2023-04-06T06:22:07;101507.63;;;6.92;56.69
65758;BME280;52495;52.208;5.158;2023-04-06T06:24:38;101509.38;;;6.96;56.67
65758;BME280;52495;52.208;5.158;2023-04-06T06:27:19;101506.84;;;7.02;56.89
65758;BME280;52495;52.208;5.158;2023-04-06T06:29:48;101501.78;;;7.13;56.22
65758;BME280;52495;52.208;5.158;2023-04-06T06:32:16;101496.66;;;7.11;55.74
65758;BME280;52495;52.208;5.158;2023-04-06T06:34:46;101495.84;;;7.16;56.14
65758;BME280;52495;52.208;5.158;2023-04-06T06:37:13;101501.03;;;7.23;56.21
65758;BME280;52495;52.208;5.158;2023-04-06T06:39:40;101506.22;;;7.31;56.05
65758;BME280;52495;52.208;5.158;2023-04-06T06:42:07;101495.06;;;7.31;56.49
65758;BME280;52495;52.208;5.158;2023-04-06T06:45:14;101502.81;;;7.35;56.07
65758;BME280;52495;52.208;5.158;2023-04-06T06:47:41;101503.72;;;7.42;56.36
65758;BME280;52495;52.208;5.158;2023-04-06T06:50:10;101499.44;;;7.41;55.96
65758;BME280;52495;52.208;5.158;2023-04-06T06:52:37;101499.44;;;7.41;56.00
65758;BME280;52495;52.208;5.158;2023-04-06T06:55:04;101498.63;;;7.47;56.82
65758;BME280;52495;52.208;5.158;2023-04-06T06:57:33;101502.88;;;7.46;56.11
65758;BME280;52495;52.208;5.158;2023-04-06T07:00:00;101497.78;;;7.48;56.08
65758;BME280;52495;52.208;5.158;2023-04-06T07:02:30;101490.94;;;7.50;56.79
65758;BME280;52495;52.208;5.158;2023-04-06T07:04:56;101492.63;;;7.49;57.17
65758;BME280;52495;52.208;5.158;2023-04-06T07:07:24;101492.66;;;7.51;56.98
65758;BME280;52495;52.208;5.158;2023-04-06T07:09:51;101489.22;;;7.52;56.81
65758;BME280;52495;52.208;5.158;2023-04-06T07:12:19;101485.00;;;7.58;56.46
65758;BME280;52495;52.208;5.158;2023-04-06T07:14:46;101480.66;;;7.50;56.66
65758;BME280;52495;52.208;5.158;2023-04-06T07:17:13;101490.94;;;7.50;56.98
65758;BME280;52495;52.208;5.158;2023-04-06T07:19:41;101485.78;;;7.51;57.39
65758;BME280;52495;52.208;5.158;2023-04-06T07:22:08;101485.84;;;7.57;57.02
65758;BME280;52495;52.208;5.158;2023-04-06T07:24:36;101476.44;;;7.61;57.72
65758;BME280;52495;52.208;5.158;2023-04-06T07:27:03;101479.03;;;7.64;58.08
65758;BME280;52495;52.208;5.158;2023-04-06T07:29:30;101467.03;;;7.66;57.84
65758;BME280;52495;52.208;5.158;2023-04-06T07:31:57;101472.16;;;7.69;57.45
65758;BME280;52495;52.208;5.158;2023-04-06T07:34:25;101473.06;;;7.74;57.23
65758;BME280;52495;52.208;5.158;2023-04-06T07:36:54;101480.81;;;7.85;57.76
65758;BME280;52495;52.208;5.158;2023-04-06T07:39:22;101482.53;;;7.88;57.80
65758;BME280;52495;52.208;5.158;2023-04-06T07:41:49;101473.13;;;7.90;57.53
65758;BME280;52495;52.208;5.158;2023-04-06T07:44:16;101477.44;;;7.96;57.63
65758;BME280;52495;52.208;5.158;2023-04-06T07:46:45;101475.78;;;8.13;57.64
65758;BME280;52495;52.208;5.158;2023-04-06T07:49:12;101473.19;;;8.07;57.74
65758;BME280;52495;52.208;5.158;2023-04-06T07:51:39;101473.22;;;8.12;57.66
65758;BME280;52495;52.208;5.158;2023-04-06T07:54:08;101474.09;;;8.14;57.85
65758;BME280;52495;52.208;5.158;2023-04-06T07:56:35;101472.38;;;8.22;57.63
65758;BME280;52495;52.208;5.158;2023-04-06T07:59:02;101471.53;;;8.29;58.25
65758;BME280;52495;52.208;5.158;2023-04-06T08:01:29;101468.13;;;8.38;57.48
65758;BME280;52495;52.208;5.158;2023-04-06T08:03:57;101473.34;;;8.49;57.22
65758;BME280;52495;52.208;5.158;2023-04-06T08:06:24;101479.34;;;8.54;57.23
65758;BME280;52495;52.208;5.158;2023-04-06T08:08:51;101470.78;;;8.61;57.74
65758;BME280;52495;52.208;5.158;2023-04-06T08:11:19;101469.06;;;8.73;57.46
65758;BME280;52495;52.208;5.158;2023-04-06T08:13:46;101475.94;;;8.71;56.68
65758;BME280;52495;52.208;5.158;2023-04-06T08:16:14;101469.06;;;8.73;57.43
65758;BME280;52495;52.208;5.158;2023-04-06T08:18:40;101459.66;;;8.79;57.45
65758;BME280;52495;52.208;5.158;2023-04-06T08:21:07;101463.94;;;8.85;57.53
65758;BME280;52495;52.208;5.158;2023-04-06T08:23:34;101469.09;;;8.96;57.42
65758;BME280;52495;52.208;5.158;2023-04-06T08:26:01;101459.63;;;9.01;56.78
65758;BME280;52495;52.208;5.158;2023-04-06T08:28:33;101459.63;;;9.09;57.24
65758;BME280;52495;52.208;5.158;2023-04-06T08:31:03;101467.34;;;9.12;56.88
65758;BME280;52495;52.208;5.158;2023-04-06T08:33:30;101464.75;;;9.24;57.00
65758;BME280;52495;52.208;5.158;2023-04-06T08:36:07;101464.75;;;9.31;57.14
65758;BME280;52495;52.208;5.158;2023-04-06T08:38:34;101457.84;;;9.34;56.98
65758;BME280;52495;52.208;5.158;2023-04-06T08:41:07;101448.41;;;9.38;57.24
65758;BME280;52495;52.208;5.158;2023-04-06T08:43:41;101452.69;;;9.45;56.97
65758;BME280;52495;52.208;5.158;2023-04-06T08:46:09;101444.06;;;9.51;56.74
65758;BME280;52495;52.208;5.158;2023-04-06T08:48:36;101450.06;;;9.59;57.40
65758;BME280;52495;52.208;5.158;2023-04-06T08:51:05;101454.38;;;9.63;57.08
65758;BME280;52495;52.208;5.158;2023-04-06T08:53:32;101453.44;;;9.74;57.09
65758;BME280;52495;52.208;5.158;2023-04-06T08:55:59;101458.63;;;9.72;57.41
65758;BME280;52495;52.208;5.158;2023-04-06T08:58:29;101456.03;;;9.74;57.54
65758;BME280;52495;52.208;5.158;2023-04-06T09:00:59;101467.19;;;9.76;57.00
65758;BME280;52495;52.208;5.158;2023-04-06T09:03:28;101459.47;;;9.79;58.05
65758;BME280;52495;52.208;5.158;2023-04-06T09:05:57;101463.72;;;9.83;57.74
65758;BME280;52495;52.208;5.158;2023-04-06T09:08:25;101465.47;;;9.79;57.73
65758;BME280;52495;52.208;5.158;2023-04-06T09:10:52;101467.19;;;9.76;58.05
65758;BME280;52495;52.208;5.158;2023-04-06T09:13:19;101463.78;;;9.70;58.18
65758;BME280;52495;52.208;5.158;2023-04-06T09:15:46;101464.59;;;9.74;59.05
65758;BME280;52495;52.208;5.158;2023-04-06T09:18:27;101471.47;;;9.78;59.09
65758;BME280;52495;52.208;5.158;2023-04-06T09:20:59;101477.50;;;9.77;59.42
65758;BME280;52495;52.208;5.158;2023-04-06T09:23:26;101464.63;;;9.79;60.10
65758;BME280;52495;52.208;5.158;2023-04-06T09:26:07;101473.25;;;9.70;59.89
65758;BME280;52495;52.208;5.158;2023-04-06T09:28:45;101480.13;;;9.68;59.78
65758;BME280;52495;52.208;5.158;2023-04-06T09:31:13;101477.53;;;9.71;60.49
65758;BME280;52495;52.208;5.158;2023-04-06T09:33:45;101473.22;;;9.71;61.44
65758;BME280;52495;52.208;5.158;2023-04-06T09:36:12;101472.34;;;9.79;61.79
65758;BME280;52495;52.208;5.158;2023-04-06T09:38:52;101479.22;;;9.84;62.89
65758;BME280;52495;52.208;5.158;2023-04-06T09:41:24;101480.94;;;9.76;63.74
65758;BME280;52495;52.208;5.158;2023-04-06T09:43:52;101474.94;;;9.79;65.14
65758;BME280;52495;52.208;5.158;2023-04-06T09:46:31;101474.06;;;9.75;65.63
65758;BME280;52495;52.208;5.158;2023-04-06T09:49:00;101479.22;;;9.75;65.74
65758;BME280;52495;52.208;5.158;2023-04-06T09:51:30;101479.22;;;9.78;66.29
65758;BME280;52495;52.208;5.158;2023-04-06T09:53:59;101475.78;;;9.81;68.01
65758;BME280;52495;52.208;5.158;2023-04-06T09:56:32;101472.38;;;9.76;67.52
65758;BME280;52495;52.208;5.158;2023-04-06T09:59:02;101473.25;;;9.73;67.93
65758;BME280;52495;52.208;5.158;2023-04-06T10:01:33;101468.06;;;9.78;68.16
65758;BME280;52495;52.208;5.158;2023-04-06T10:04:10;101471.50;;;9.80;67.49
65758;BME280;52495;52.208;5.158;2023-04-06T10:06:40;101465.47;;;9.76;68.07
65758;BME280;52495;52.208;5.158;2023-04-06T10:09:08;101475.78;;;9.82;68.77
65758;BME280;52495;52.208;5.158;2023-04-06T10:11:35;101477.47;;;9.86;68.13
65758;BME280;52495;52.208;5.158;2023-04-06T10:14:02;101476.56;;;9.98;67.13
65758;BME280;52495;52.208;5.158;2023-04-06T10:16:30;101471.44;;;9.92;67.57
65758;BME280;52495;52.208;5.158;2023-04-06T10:19:02;101472.28;;;9.94;68.72
65758;BME280;52495;52.208;5.158;2023-04-06T10:21:34;101476.63;;;9.87;68.41
65758;BME280;52495;52.208;5.158;2023-04-06T10:24:08;101471.44;;;9.86;70.22
65758;BME280;52495;52.208;5.158;2023-04-06T10:26:37;101472.34;;;9.82;71.29
65758;BME280;52495;52.208;5.158;2023-04-06T10:29:06;101464.59;;;9.80;72.04
65758;BME280;52495;52.208;5.158;2023-04-06T10:31:40;101461.16;;;9.84;73.16
65758;BME280;52495;52.208;5.158;2023-04-06T10:34:08;101463.75;;;9.81;73.25
65758;BME280;52495;52.208;5.158;2023-04-06T10:36:36;101467.16;;;9.90;72.91
65758;BME280;52495;52.208;5.158;2023-04-06T10:39:05;101460.25;;;9.93;73.15
65758;BME280;52495;52.208;5.158;2023-04-06T10:41:33;101466.28;;;9.89;73.60
65758;BME280;52495;52.208;5.158;2023-04-06T10:44:01;101457.66;;;9.98;73.77
65758;BME280;52495;52.208;5.158;2023-04-06T10:46:30;101456.84;;;9.86;74.79
65758;BME280;52495;52.208;5.158;2023-04-06T10:48:57;101453.38;;;9.89;74.88
65758;BME280;52495;52.208;5.158;2023-04-06T10:51:27;101452.53;;;9.90;76.29
65758;BME280;52495;52.208;5.158;2023-04-06T10:53:56;101452.53;;;9.84;76.00
65758;BME280;52495;52.208;5.158;2023-04-06T10:56:24;101447.41;;;9.85;76.14
65758;BME280;52495;52.208;5.158;2023-04-06T10:58:54;101439.69;;;9.75;76.75
65758;BME280;52495;52.208;5.158;2023-04-06T11:01:24;101437.06;;;9.84;77.55
65758;BME280;52495;52.208;5.158;2023-04-06T11:03:53;101437.97;;;9.77;77.10
65758;BME280;52495;52.208;5.158;2023-04-06T11:06:21;101431.09;;;9.74;78.36
65758;BME280;52495;52.208;5.158;2023-04-06T11:08:51;101436.22;;;9.83;78.30
65758;BME280;52495;52.208;5.158;2023-04-06T11:11:20;101430.22;;;9.80;77.67
65758;BME280;52495;52.208;5.158;2023-04-06T11:13:50;101422.53;;;9.72;79.48
65758;BME280;52495;52.208;5.158;2023-04-06T11:16:19;101427.69;;;9.69;79.76
65758;BME280;52495;52.208;5.158;2023-04-06T11:18:51;101422.53;;;9.69;79.81
65758;BME280;52495;52.208;5.158;2023-04-06T11:21:18;101419.94;;;9.70;80.04
65758;BME280;52495;52.208;5.158;2023-04-06T11:23:45;101416.50;;;9.71;81.40
65758;BME280;52495;52.208;5.158;2023-04-06T11:26:14;101419.94;;;9.77;81.46
65758;BME280;52495;52.208;5.158;2023-04-06T11:28:44;101423.34;;;9.74;81.62
65758;BME280;52495;52.208;5.158;2023-04-06T11:31:11;101414.78;;;9.77;82.37
65758;BME280;52495;52.208;5.158;2023-04-06T11:33:41;101418.22;;;9.71;81.76
65758;BME280;52495;52.208;5.158;2023-04-06T11:36:08;101412.22;;;9.66;81.16
65758;BME280;52495;52.208;5.158;2023-04-06T11:38:39;101413.09;;;9.59;82.06
65758;BME280;52495;52.208;5.158;2023-04-06T11:41:06;101409.66;;;9.66;82.06
65758;BME280;52495;52.208;5.158;2023-04-06T11:43:33;101411.38;;;9.61;82.73
65758;BME280;52495;52.208;5.158;2023-04-06T11:46:03;101403.63;;;9.65;82.62
65758;BME280;52495;52.208;5.158;2023-04-06T11:48:32;101403.63;;;9.64;83.03
65758;BME280;52495;52.208;5.158;2023-04-06T11:50:59;101398.47;;;9.70;83.04
65758;BME280;52495;52.208;5.158;2023-04-06T11:53:27;101391.53;;;9.75;83.70
65758;BME280;52495;52.208;5.158;2023-04-06T11:55:55;101392.41;;;9.74;84.40
65758;BME280;52495;52.208;5.158;2023-04-06T11:58:22;101393.28;;;9.75;83.67
65758;BME280;52495;52.208;5.158;2023-04-06T12:00:49;101390.72;;;9.73;84.27
65758;BME280;52495;52.208;5.158;2023-04-06T12:03:20;101383.81;;;9.80;83.95
65758;BME280;52495;52.208;5.158;2023-04-06T12:05:47;101385.50;;;9.82;84.30
65758;BME280;52495;52.208;5.158;2023-04-06T12:08:15;101390.59;;;9.92;84.42
65758;BME280;52495;52.208;5.158;2023-04-06T12:10:42;101389.78;;;9.86;84.66
65758;BME280;52495;52.208;5.158;2023-04-06T12:13:09;101382.03;;;9.90;84.08
65758;BME280;52495;52.208;5.158;2023-04-06T12:15:36;101391.53;;;9.81;84.44
65758;BME280;52495;52.208;5.158;2023-04-06T12:18:03;101382.94;;;9.82;84.83
65758;BME280;52495;52.208;5.158;2023-04-06T12:20:32;101383.81;;;9.80;84.87
65758;BME280;52495;52.208;5.158;2023-04-06T12:22:59;101382.94;;;9.76;84.84
65758;BME280;52495;52.208;5.158;2023-04-06T12:25:26;101378.66;;;9.80;84.62
65758;BME280;52495;52.208;5.158;2023-04-06T12:27:54;101377.81;;;9.75;85.00
65758;BME280;52495;52.208;5.158;2023-04-06T12:30:21;101388.16;;;9.67;86.27
65758;BME280;52495;52.208;5.158;2023-04-06T12:32:50;101381.28;;;9.66;86.33
65758;BME280;52495;52.208;5.158;2023-04-06T12:35:17;101372.69;;;9.70;86.47
65758;BME280;52495;52.208;5.158;2023-04-06T12:37:45;101365.81;;;9.63;87.27
65758;BME280;52495;52.208;5.158;2023-04-06T12:40:12;101375.25;;;9.65;86.78
65758;BME280;52495;52.208;5.158;2023-04-06T12:42:40;101369.28;;;9.60;87.62
65758;BME280;52495;52.208;5.158;2023-04-06T12:45:08;101371.88;;;9.60;88.05
65758;BME280;52495;52.208;5.158;2023-04-06T12:47:35;101368.44;;;9.58;89.57
65758;BME280;52495;52.208;5.158;2023-04-06T12:50:04;101377.00;;;9.62;88.24
65758;BME280;52495;52.208;5.158;2023-04-06T12:52:31;101359.78;;;9.65;87.77
65758;BME280;52495;52.208;5.158;2023-04-06T12:55:02;101348.69;;;9.57;87.86
65758;BME280;52495;52.208;5.158;2023-04-06T12:57:30;101360.69;;;9.56;88.36
65758;BME280;52495;52.208;5.158;2023-04-06T12:59:57;101357.28;;;9.54;88.54
65758;BME280;52495;52.208;5.158;2023-04-06T13:02:25;101357.31;;;9.45;88.78
65758;BME280;52495;52.208;5.158;2023-04-06T13:04:52;101352.16;;;9.48;88.99
65758;BME280;52495;52.208;5.158;2023-04-06T13:07:19;101351.31;;;9.45;89.26
65758;BME280;52495;52.208;5.158;2023-04-06T13:09:46;101353.88;;;9.46;89.30
65758;BME280;52495;52.208;5.158;2023-04-06T13:12:16;101348.72;;;9.40;90.30